Time;durP1;ratioP1;P1;durP2;ratioP2;P2;SDS_P1;SDS_P2;PMS_P1;PMS_P2;Temp;Humidity;BMP_temperature;BMP_pressure;BME280_temperature;BME280_humidity;BME280_pressure;Samples;Min_cycle;Max_cycle;Signal;HPM_P1;HPM_P2
2021/03/18 00:02:15;;;;;;;8.45;3.40;;;;;;;1.59;69.01;101360.31;5014887;28;20050;-83
2021/03/18 00:04:41;;;;;;;8.27;3.90;;;;;;;1.58;69.39;101358.56;5015123;28;20054;-82
2021/03/18 00:07:08;;;;;;;6.10;3.53;;;;;;;1.57;69.02;101350.75;5013821;28;20046;-81
2021/03/18 00:10:06;;;;;;;7.70;3.22;;;;;;;1.56;69.35;101349.88;5020378;28;20050;-82
2021/03/18 00:12:56;;;;;;;7.28;3.38;;;;;;;1.55;69.75;101342.03;5027238;28;20060;-83
2021/03/18 00:19:38;;;;;;;5.93;3.33;;;;;;;1.58;69.60;101329.84;5030451;28;20152;-83
2021/03/18 00:25:56;;;;;;;5.82;3.72;;;;;;;1.55;68.65;101324.63;5032119;28;20081;-82
2021/03/18 00:32:04;;;;;;;9.25;3.38;;;;;;;1.57;69.28;101322.91;5027659;28;20067;-82
2021/03/18 00:34:35;;;;;;;6.28;3.42;;;;;;;1.54;69.31;101314.19;5031627;28;20475;-82
2021/03/18 00:37:04;;;;;;;6.47;3.33;;;;;;;1.48;70.02;101317.63;5034774;28;20080;-82
2021/03/18 00:39:40;;;;;;;8.10;3.53;;;;;;;1.47;69.95;101317.63;5032914;28;20134;-82
2021/03/18 00:42:06;;;;;;;7.25;3.40;;;;;;;1.42;70.00;101315.84;5026524;28;20448;-82
2021/03/18 00:44:32;;;;;;;10.07;3.60;;;;;;;1.42;70.34;101312.38;5028056;28;20085;-82
2021/03/18 00:46:59;;;;;;;6.43;3.72;;;;;;;1.42;69.81;101318.47;5007057;28;20068;-82
2021/03/18 00:49:25;;;;;;;6.50;3.50;;;;;;;1.44;70.19;101314.97;5002908;28;20054;-85
2021/03/18 00:51:54;;;;;;;13.20;3.92;;;;;;;1.44;70.46;101315.84;5000411;28;20137;-83
2021/03/18 00:54:21;;;;;;;6.90;3.60;;;;;;;1.37;70.33;101299.31;4999252;28;20101;-83
2021/03/18 00:56:53;;;;;;;7.72;4.00;;;;;;;1.39;70.79;101314.97;4996827;28;20058;-82
2021/03/18 00:59:20;;;;;;;10.18;3.95;;;;;;;1.37;70.93;101316.72;4999596;28;20084;-84
2021/03/18 01:01:47;;;;;;;10.55;3.72;;;;;;;1.33;70.97;101307.09;5001417;28;20140;-82
2021/03/18 01:04:13;;;;;;;7.65;3.75;;;;;;;1.30;71.23;101307.09;5002667;28;20059;-83
2021/03/18 01:07:15;;;;;;;6.03;3.40;;;;;;;1.29;71.33;101307.94;5003687;28;20109;-82
2021/03/18 01:09:45;;;;;;;9.05;3.97;;;;;;;1.28;71.18;101312.28;5019696;28;20053;-82
2021/03/18 01:19:43;;;;;;;5.50;3.50;;;;;;;1.22;71.60;101306.19;5039714;28;20038;-81
2021/03/18 01:22:34;;;;;;;8.68;4.47;;;;;;;1.20;71.00;101305.31;5040615;28;20057;-82
2021/03/18 01:25:27;;;;;;;11.25;4.05;;;;;;;1.18;71.50;101312.25;5040318;28;20065;-81
2021/03/18 01:28:19;;;;;;;10.40;4.18;;;;;;;1.15;71.98;101318.31;5033765;28;20052;-82
2021/03/18 01:31:11;;;;;;;7.20;3.95;;;;;;;1.14;72.16;101311.34;5023193;28;20050;-82
2021/03/18 01:33:40;;;;;;;6.95;3.78;;;;;;;1.11;72.45;101311.31;5022656;28;20058;-82
2021/03/18 01:47:24;;;;;;;8.73;3.47;;;;;;;0.98;72.86;101307.78;5036695;28;20118;-81
2021/03/18 01:50:17;;;;;;;7.43;4.03;;;;;;;0.95;72.98;101318.19;5024988;28;20056;-82
2021/03/18 01:53:27;;;;;;;8.07;4.32;;;;;;;0.91;73.39;101319.03;5028415;28;20100;-82
2021/03/18 01:56:34;;;;;;;10.85;4.53;;;;;;;0.88;73.13;101313.81;5034582;28;20084;-82
2021/03/18 01:59:25;;;;;;;6.70;3.92;;;;;;;0.87;73.95;101316.38;5030915;28;20508;-82
2021/03/18 02:05:46;;;;;;;8.85;3.50;;;;;;;0.81;73.71;101318.94;5009717;28;19959;-82
2021/03/18 02:08:17;;;;;;;6.03;3.40;;;;;;;0.77;73.93;101320.69;5006322;28;20103;-83
2021/03/18 02:14:07;;;;;;;5.57;3.40;;;;;;;0.77;74.12;101320.69;5011866;28;20081;-83
2021/03/18 02:17:03;;;;;;;7.95;3.60;;;;;;;0.79;73.85;101318.94;5006226;28;20054;-82
2021/03/18 02:19:33;;;;;;;9.90;3.90;;;;;;;0.83;73.68;101322.44;5003707;28;20129;-82
2021/03/18 02:22:37;;;;;;;10.68;4.45;;;;;;;0.79;74.18;101324.13;5003999;28;20066;-85
2021/03/18 02:25:18;;;;;;;8.88;4.00;;;;;;;0.60;74.19;101319.66;5003255;28;20257;-83
2021/03/18 02:27:59;;;;;;;;;;;;;;;0.44;75.15;101316.06;5004088;28;20113;-82
2021/03/18 02:31:13;;;;;;;8.82;4.80;;;;;;;0.28;76.07;101320.25;5008351;28;19924;-82
2021/03/18 02:34:11;;;;;;;9.18;4.60;;;;;;;0.28;77.16;101327.19;5013095;28;20141;-82
2021/03/18 02:36:51;;;;;;;9.77;4.80;;;;;;;0.31;76.70;101317.69;5013826;28;20054;-82
2021/03/18 02:42:43;;;;;;;9.15;4.95;;;;;;;0.32;76.58;101311.59;5020311;28;20097;-81
2021/03/18 02:45:11;;;;;;;7.85;4.82;;;;;;;0.33;76.71;101310.72;5020327;28;20034;-81
2021/03/18 02:47:40;;;;;;;8.18;4.30;;;;;;;0.34;76.91;101307.25;5020240;28;20086;-83
2021/03/18 02:50:37;;;;;;;9.43;4.97;;;;;;;0.37;76.57;101316.84;5019616;28;20114;-82
2021/03/18 02:53:06;;;;;;;11.13;4.70;;;;;;;0.34;76.86;101317.69;5009784;28;20145;-82
2021/03/18 02:59:38;;;;;;;8.55;4.28;;;;;;;0.38;77.11;101320.31;5005198;28;20057;-82
2021/03/18 03:06:03;;;;;;;10.75;5.00;;;;;;;0.35;76.74;101315.97;5011300;28;20112;-81
2021/03/18 03:08:30;;;;;;;8.32;5.13;;;;;;;0.28;77.27;101312.44;5014327;28;20585;-80
2021/03/18 03:11:00;;;;;;;12.43;5.00;;;;;;;0.27;77.30;101312.41;5015371;28;20185;-80
2021/03/18 03:13:31;;;;;;;11.65;4.60;;;;;;;0.24;77.50;101315.88;5015135;28;20065;-81
2021/03/18 03:16:03;;;;;;;8.88;5.05;;;;;;;0.22;77.46;101314.09;5013345;28;20054;-81
2021/03/18 03:18:31;;;;;;;7.95;4.40;;;;;;;0.23;77.74;101316.72;5012274;28;20101;-82
2021/03/18 03:21:02;;;;;;;10.82;4.97;;;;;;;0.23;77.75;101315.84;5011787;28;20070;-81
2021/03/18 03:27:02;;;;;;;9.02;4.22;;;;;;;0.25;77.46;101309.81;5006047;28;20090;-82
2021/03/18 03:30:08;;;;;;;8.07;4.78;;;;;;;0.25;77.61;101316.75;4999628;28;20089;-82
2021/03/18 03:32:46;;;;;;;8.90;4.60;;;;;;;0.24;77.59;101313.25;5000795;28;20061;-82
2021/03/18 03:35:17;;;;;;;8.65;4.80;;;;;;;0.26;77.66;101316.75;5001065;28;20081;-81
2021/03/18 03:44:50;;;;;;;8.25;4.43;;;;;;;0.20;77.75;101306.28;4981860;28;20145;-82
2021/03/18 03:47:42;;;;;;;;;;;;;;;0.20;77.84;101315.81;4993790;28;20106;-82
2021/03/18 03:50:15;;;;;;;11.60;4.72;;;;;;;0.19;78.26;101314.94;5004264;28;19932;-82
2021/03/18 03:56:20;;;;;;;11.27;5.15;;;;;;;0.25;77.23;101315.00;5010213;28;20062;-82
2021/03/18 03:59:06;;;;;;;7.80;5.05;;;;;;;0.26;77.58;101311.56;5010967;28;20074;-82
2021/03/18 04:05:11;;;;;;;9.75;5.50;;;;;;;0.26;76.99;101308.06;5001642;28;20054;-82
2021/03/18 04:08:47;;;;;;;6.50;5.00;;;;;;;0.21;77.37;101308.00;4983576;28;20075;-81
2021/03/18 04:11:14;;;;;;;10.80;5.63;;;;;;;0.21;77.63;101309.75;4990270;28;20411;-82
2021/03/18 04:18:14;;;;;;;8.82;5.32;;;;;;;0.21;77.51;101313.22;4992017;28;20426;-81
2021/03/18 04:24:30;;;;;;;12.45;6.03;;;;;;;0.29;77.39;101297.69;4980841;28;20456;-82
2021/03/18 04:27:22;;;;;;;11.50;5.00;;;;;;;0.33;77.83;101289.88;4980656;28;20053;-82
2021/03/18 04:30:20;;;;;;;7.50;5.30;;;;;;;0.40;77.63;101302.97;4980446;28;20070;-81
2021/03/18 04:32:50;;;;;;;9.73;5.30;;;;;;;0.47;77.21;101305.66;4983366;28;20065;-81
2021/03/18 04:35:19;;;;;;;10.93;5.22;;;;;;;0.54;77.14;101301.38;5000771;28;20054;-81
2021/03/18 04:37:46;;;;;;;12.85;5.57;;;;;;;0.59;76.81;101303.16;5005213;28;20064;-82
2021/03/18 04:40:14;;;;;;;14.30;6.03;;;;;;;0.62;76.25;101307.53;5001158;28;20158;-82
2021/03/18 04:57:45;;;;;;;9.45;5.60;;;;;;;0.79;75.79;101289.41;5003172;28;20114;-83
2021/03/18 05:00:39;;;;;;;10.20;5.63;;;;;;;0.86;75.40;101293.78;4998749;28;20057;-83
2021/03/18 05:03:09;;;;;;;8.23;5.70;;;;;;;0.85;75.19;101282.47;5007835;28;20545;-82
2021/03/18 05:06:04;;;;;;;11.70;5.80;;;;;;;0.87;75.83;101282.50;5013851;28;20058;-82
2021/03/18 05:08:56;;;;;;;11.40;5.28;;;;;;;0.86;75.65;101284.22;5008912;28;20520;-83
2021/03/18 05:11:25;;;;;;;9.75;5.72;;;;;;;0.91;75.78;101282.53;4998680;28;20056;-83
2021/03/18 05:13:54;;;;;;;9.93;5.82;;;;;;;0.94;75.51;101290.38;4998783;28;20054;-81
2021/03/18 05:16:21;;;;;;;10.98;6.13;;;;;;;0.88;75.31;101279.91;4998436;28;20054;-83
2021/03/18 05:18:49;;;;;;;10.68;6.10;;;;;;;0.84;75.70;101285.94;4997301;28;20150;-83
2021/03/18 05:21:15;;;;;;;11.65;7.10;;;;;;;0.84;76.83;101282.47;4997199;28;20050;-80
2021/03/18 05:23:47;;;;;;;10.50;5.40;;;;;;;0.88;76.42;101285.13;4999569;28;20062;-80
2021/03/18 05:26:14;;;;;;;9.65;5.60;;;;;;;0.93;76.17;101287.75;4999918;28;20477;-82
2021/03/18 05:28:41;;;;;;;11.63;6.03;;;;;;;0.92;76.54;101284.28;4999219;28;20054;-82
2021/03/18 05:31:07;;;;;;;10.50;5.53;;;;;;;0.97;75.75;101284.28;5014473;28;20129;-83
2021/03/18 05:33:34;;;;;;;13.07;5.90;;;;;;;0.99;75.60;101283.44;5002028;28;20054;-83
2021/03/18 05:36:09;;;;;;;12.38;5.60;;;;;;;1.07;75.55;101277.41;4998418;28;20423;-82
2021/03/18 05:38:35;;;;;;;10.88;5.80;;;;;;;1.04;75.19;101266.09;4999897;28;20050;-82
2021/03/18 05:41:01;;;;;;;10.98;6.07;;;;;;;0.99;75.84;101262.56;5004358;28;20061;-81
2021/03/18 05:43:28;;;;;;;11.15;6.10;;;;;;;1.01;75.51;101268.69;4997575;28;20136;-81
2021/03/18 05:45:55;;;;;;;11.55;5.65;;;;;;;1.07;75.32;101265.25;4996352;28;20162;-84
2021/03/18 05:48:22;;;;;;;10.50;5.55;;;;;;;1.13;75.25;101261.78;4995910;28;20046;-80
2021/03/18 05:50:50;;;;;;;8.25;5.82;;;;;;;1.15;75.40;101273.09;4989722;28;20070;-83
2021/03/18 05:53:22;;;;;;;9.25;5.80;;;;;;;1.19;75.47;101274.84;5018937;28;20137;-82
2021/03/18 05:55:52;;;;;;;12.63;6.03;;;;;;;1.23;75.79;101274.91;4997894;28;20554;-87
2021/03/18 05:58:23;;;;;;;12.45;5.95;;;;;;;1.21;75.88;101270.53;5002722;28;20054;-86
2021/03/18 06:00:50;;;;;;;;;;;;;;;1.25;75.81;101270.56;4996710;28;20049;-82
2021/03/18 06:03:18;;;;;;;13.18;5.82;;;;;;;1.29;75.89;101268.81;4995429;28;20035;-86
2021/03/18 06:06:00;;;;;;;12.65;6.10;;;;;;;1.31;75.51;101260.13;4997549;28;20118;-87
2021/03/18 06:08:27;;;;;;;10.18;5.32;;;;;;;1.39;74.87;101265.41;5009497;28;20097;-82
2021/03/18 06:10:55;;;;;;;10.88;5.90;;;;;;;1.42;75.13;101259.31;5011255;28;20074;-87
2021/03/18 06:13:22;;;;;;;12.90;6.05;;;;;;;1.44;75.90;101261.03;5004817;28;20051;-83
2021/03/18 06:15:49;;;;;;;9.32;5.32;;;;;;;1.49;75.73;101272.38;5010142;28;20066;-86
2021/03/18 06:18:19;;;;;;;11.10;5.38;;;;;;;1.47;75.58;101271.50;5008812;28;20106;-83
2021/03/18 06:20:55;;;;;;;9.02;6.18;;;;;;;1.46;75.08;101266.28;5010188;28;20069;-85
2021/03/18 06:23:22;;;;;;;12.15;6.20;;;;;;;1.45;74.83;101264.53;5013994;28;20058;-85
2021/03/18 06:25:49;;;;;;;9.07;5.95;;;;;;;1.46;74.81;101269.75;5007229;28;20085;-81
2021/03/18 06:28:35;;;;;;;13.43;6.80;;;;;;;1.49;75.52;101266.28;5007568;28;20058;-84
2021/03/18 06:31:09;;;;;;;14.48;7.00;;;;;;;1.59;76.39;101276.75;5011022;28;20053;-84
2021/03/18 06:33:47;;;;;;;9.70;5.95;;;;;;;1.69;75.75;101277.69;5009305;28;20058;-82
2021/03/18 06:36:29;;;;;;;10.30;5.30;;;;;;;1.84;75.39;101276.88;5001565;28;20050;-84
2021/03/18 06:38:58;;;;;;;12.02;6.18;;;;;;;1.92;74.90;101280.34;5003162;28;20066;-82
2021/03/18 06:41:39;;;;;;;10.70;6.38;;;;;;;1.96;74.38;101279.50;5010477;28;20054;-85
2021/03/18 06:44:20;;;;;;;9.57;6.22;;;;;;;2.06;74.58;101281.25;5002181;28;20062;-84
2021/03/18 06:46:47;;;;;;;10.35;6.43;;;;;;;2.16;74.43;101276.94;5014741;28;20053;-81
2021/03/18 06:49:18;;;;;;;15.23;7.05;;;;;;;2.24;73.84;101277.78;5005272;28;20059;-80
2021/03/18 06:52:09;;;;;;;11.63;6.43;;;;;;;2.35;73.88;101270.84;5005572;28;20084;-82
2021/03/18 06:54:45;;;;;;;13.73;6.50;;;;;;;2.44;73.57;101276.94;5007150;28;20098;-83
2021/03/18 06:57:18;;;;;;;12.05;6.47;;;;;;;2.56;73.31;101268.22;5011548;28;20105;-84
2021/03/18 06:59:45;;;;;;;11.27;6.03;;;;;;;2.67;72.39;101266.50;5004704;28;20069;-82
2021/03/18 07:02:18;;;;;;;14.43;7.47;;;;;;;2.79;72.77;101265.59;5004847;28;20108;-82
2021/03/18 07:04:51;;;;;;;13.82;7.00;;;;;;;2.92;72.44;101277.78;5012022;28;20084;-84
2021/03/18 07:07:20;;;;;;;12.43;7.20;;;;;;;3.07;72.23;101272.50;5024237;28;20046;-84
2021/03/18 07:09:50;;;;;;;19.42;8.88;;;;;;;3.25;71.46;101278.56;5011455;28;20058;-84
2021/03/18 07:12:27;;;;;;;10.43;6.60;;;;;;;3.45;70.38;101275.03;5011832;28;20042;-82
2021/03/18 07:14:56;;;;;;;11.57;6.35;;;;;;;3.69;69.34;101284.50;5016857;28;20065;-84
2021/03/18 07:17:37;;;;;;;9.98;6.35;;;;;;;3.90;68.25;101277.44;5014485;28;20097;-87
2021/03/18 07:20:17;;;;;;;11.75;5.50;;;;;;;4.24;67.05;101281.56;5016377;28;20065;-82
2021/03/18 07:22:51;;;;;;;11.32;4.97;;;;;;;4.78;63.96;101268.88;5032063;28;20054;-82
2021/03/18 07:25:29;;;;;;;12.65;5.55;;;;;;;5.09;62.64;101267.69;5006453;28;20131;-84
2021/03/18 07:27:59;;;;;;;9.82;5.32;;;;;;;5.29;61.32;101265.72;4997529;28;20059;-83
2021/03/18 07:30:28;;;;;;;;;;;;;;;5.79;60.52;101266.84;5001877;28;20054;-82
2021/03/18 07:32:57;;;;;;;10.93;4.93;;;;;;;6.32;55.72;101262.59;5000050;28;19997;-82
2021/03/18 07:35:28;;;;;;;12.07;5.35;;;;;;;6.10;55.35;101263.81;5009102;28;20050;-88
2021/03/18 07:38:15;;;;;;;9.15;5.28;;;;;;;5.43;56.32;101267.31;5019252;28;20066;-82
2021/03/18 07:40:44;;;;;;;11.05;5.65;;;;;;;5.01;58.50;101264.28;5005604;28;20108;-82
2021/03/18 07:43:14;;;;;;;12.10;5.75;;;;;;;4.87;58.81;101264.44;4996894;28;20058;-82
2021/03/18 07:45:47;;;;;;;11.10;5.97;;;;;;;4.68;58.77;101265.47;4995823;28;20069;-85
2021/03/18 07:48:20;;;;;;;9.77;5.22;;;;;;;4.52;59.78;101264.75;5012003;28;20062;-86
2021/03/18 07:51:25;;;;;;;8.60;5.72;;;;;;;4.44;59.69;101265.69;5014857;28;20057;-82
2021/03/18 07:54:19;;;;;;;11.55;5.70;;;;;;;4.41;59.97;101260.44;4992460;28;20374;-81
2021/03/18 07:56:50;;;;;;;9.63;5.95;;;;;;;4.55;59.89;101250.75;4999142;28;20109;-81
2021/03/18 07:59:43;;;;;;;13.30;5.88;;;;;;;4.79;59.35;101247.88;5001926;28;20072;-82
2021/03/18 08:02:20;;;;;;;11.85;5.80;;;;;;;4.83;60.05;101249.59;5005450;28;20145;-82
2021/03/18 08:04:51;;;;;;;11.82;6.03;;;;;;;5.06;58.77;101262.47;5011531;28;20114;-81
2021/03/18 08:07:40;;;;;;;11.45;5.38;;;;;;;5.32;58.14;101253.44;5006985;28;20481;-82
2021/03/18 08:10:24;;;;;;;13.20;5.95;;;;;;;5.51;57.91;101249.72;5004622;28;20081;-83
2021/03/18 08:12:56;;;;;;;11.98;6.10;;;;;;;5.78;56.17;101253.72;5025812;28;20072;-82
2021/03/18 08:15:32;;;;;;;8.65;5.43;;;;;;;5.89;56.08;101251.84;5015676;28;20057;-80
2021/03/18 08:18:14;;;;;;;10.65;6.32;;;;;;;5.77;55.83;101244.97;5010966;28;20084;-80
2021/03/18 08:20:49;;;;;;;10.68;5.53;;;;;;;5.62;55.63;101247.81;5003217;28;20108;-82
2021/03/18 08:23:24;;;;;;;12.18;5.93;;;;;;;5.32;56.62;101253.44;5002944;28;20078;-83
2021/03/18 08:25:55;;;;;;;12.75;6.22;;;;;;;5.32;57.05;101248.19;4998963;28;20188;-82
2021/03/18 08:29:12;;;;;;;14.13;7.10;;;;;;;5.49;57.11;101251.50;5011645;28;20073;-83
2021/03/18 08:32:06;;;;;;;10.27;6.22;;;;;;;5.71;56.64;101246.81;5027534;28;20074;-82
2021/03/18 08:34:42;;;;;;;11.80;6.63;;;;;;;5.80;55.83;101250.19;5006518;28;20058;-82
2021/03/18 08:37:14;;;;;;;14.95;7.28;;;;;;;6.17;54.68;101247.03;5014046;28;20905;-86
2021/03/18 08:39:51;;;;;;;9.55;5.88;;;;;;;7.05;52.74;101245.53;5015182;28;20112;-82
2021/03/18 08:42:30;;;;;;;11.48;6.55;;;;;;;7.39;51.32;101243.09;4993036;28;20078;-84
2021/03/18 08:45:24;;;;;;;11.13;5.97;;;;;;;8.26;49.39;101241.16;4995080;28;20046;-83
2021/03/18 08:47:56;;;;;;;10.93;6.15;;;;;;;8.85;47.54;101230.88;4997280;28;20057;-83
2021/03/18 08:50:23;;;;;;;10.63;6.50;;;;;;;9.23;46.38;101235.13;4989731;28;20058;-82
2021/03/18 08:52:56;;;;;;;16.35;5.78;;;;;;;8.97;46.30;101220.03;4998119;28;20493;-82
2021/03/18 08:55:37;;;;;;;9.82;6.28;;;;;;;8.06;48.29;101231.06;5005177;28;20042;-89
2021/03/18 08:58:08;;;;;;;13.05;7.13;;;;;;;7.31;50.35;101232.72;5011750;28;20053;-90
2021/03/18 09:00:38;;;;;;;10.82;5.32;;;;;;;6.89;51.87;101229.16;5001409;28;20050;-90
2021/03/18 09:03:06;;;;;;;13.73;6.03;;;;;;;6.42;53.77;101232.63;5013161;28;20108;-88
2021/03/18 09:05:34;;;;;;;13.77;6.90;;;;;;;5.96;54.38;101220.19;5009111;28;20053;-82
2021/03/18 09:08:05;;;;;;;11.50;6.55;;;;;;;5.76;55.18;101227.47;5000227;28;20117;-84
2021/03/18 09:10:37;;;;;;;12.03;5.90;;;;;;;5.59;55.67;101222.44;4998064;28;20051;-81
2021/03/18 09:13:14;;;;;;;10.30;5.68;;;;;;;5.67;55.98;101219.69;5013282;28;20560;-82
2021/03/18 09:15:43;;;;;;;8.85;5.70;;;;;;;5.70;55.63;101213.53;5002264;28;20137;-82
2021/03/18 09:18:18;;;;;;;11.07;6.22;;;;;;;5.78;54.79;101220.44;5001320;28;20133;-84
2021/03/18 09:20:58;;;;;;;13.38;6.90;;;;;;;5.71;55.06;101221.41;5009958;28;20085;-84
2021/03/18 09:23:31;;;;;;;11.90;6.38;;;;;;;5.66;55.15;101223.25;5014058;28;20130;-82
2021/03/18 09:26:04;;;;;;;10.48;5.90;;;;;;;5.79;55.96;101222.16;5007620;28;20050;-79
2021/03/18 09:28:35;;;;;;;10.75;5.47;;;;;;;5.88;55.49;101218.53;5010328;28;20080;-81
2021/03/18 09:31:03;;;;;;;9.70;6.07;;;;;;;5.94;54.85;101218.47;5010368;28;20042;-85
2021/03/18 09:33:41;;;;;;;12.25;5.95;;;;;;;5.88;54.45;101213.28;5022999;28;20137;-80
2021/03/18 09:36:20;;;;;;;11.27;6.18;;;;;;;5.82;54.58;101219.50;5029334;28;20481;-82
2021/03/18 09:39:12;;;;;;;14.82;6.60;;;;;;;5.97;55.41;101213.19;5004123;28;20453;-82
2021/03/18 09:41:45;;;;;;;10.95;6.43;;;;;;;6.27;55.33;101222.34;5006793;28;20047;-83
2021/03/18 09:44:22;;;;;;;10.65;5.63;;;;;;;6.48;54.50;101215.84;5011774;28;20050;-82
2021/03/18 09:47:08;;;;;;;11.80;6.35;;;;;;;6.73;53.75;101216.31;5004397;28;20142;-82
2021/03/18 09:49:38;;;;;;;9.98;5.82;;;;;;;6.83;52.50;101217.84;5004783;28;20089;-82
2021/03/18 09:52:11;;;;;;;15.32;6.80;;;;;;;6.87;53.28;101214.28;5009628;28;20166;-81
2021/03/18 09:55:23;;;;;;;13.77;8.82;;;;;;;7.02;52.47;101211.34;5009218;28;20045;-82
2021/03/18 09:57:50;;;;;;;16.90;7.25;;;;;;;7.04;52.69;101206.94;4998817;28;20050;-84
2021/03/18 10:00:17;;;;;;;13.93;7.38;;;;;;;7.20;52.49;101208.38;4997319;28;20818;-83
2021/03/18 10:02:44;;;;;;;12.52;7.00;;;;;;;7.34;51.47;101200.16;4997554;28;20058;-81
2021/03/18 10:05:13;;;;;;;12.20;6.88;;;;;;;7.47;51.70;101193.75;4998827;28;20584;-82
2021/03/18 10:07:41;;;;;;;14.10;8.23;;;;;;;7.59;51.13;101200.50;5005445;28;20264;-83
2021/03/18 10:10:18;;;;;;;13.35;7.40;;;;;;;7.49;50.63;101184.03;5002498;28;20050;-83
2021/03/18 10:12:45;;;;;;;18.08;9.55;;;;;;;7.56;51.22;101187.38;5001864;28;20047;-83
2021/03/18 10:15:13;;;;;;;14.68;8.73;;;;;;;7.60;51.02;101175.88;5000920;28;20058;-85
2021/03/18 10:17:44;;;;;;;18.80;10.50;;;;;;;7.73;51.41;101177.34;4998791;28;20068;-84
2021/03/18 10:20:25;;;;;;;16.20;8.95;;;;;;;7.98;51.54;101178.50;5004323;28;20058;-84
2021/03/18 10:23:06;;;;;;;16.27;8.50;;;;;;;8.07;50.29;101165.09;5009821;28;20046;-82
2021/03/18 10:25:35;;;;;;;15.15;8.65;;;;;;;8.00;51.28;101170.56;5010070;28;20085;-83
2021/03/18 10:28:08;;;;;;;14.10;8.63;;;;;;;8.16;50.12;101165.78;5015282;28;20054;-81
2021/03/18 10:30:41;;;;;;;13.57;8.48;;;;;;;8.35;50.52;101167.94;5017091;28;20058;-83
2021/03/18 10:33:22;;;;;;;13.52;8.40;;;;;;;8.61;49.62;101171.69;5015217;28;20055;-80
2021/03/18 10:35:54;;;;;;;12.75;8.23;;;;;;;8.64;48.80;101158.41;5016305;28;20038;-82
2021/03/18 10:41:54;;;;;;;11.02;7.90;;;;;;;8.87;47.88;101144.56;5006553;28;20101;-85
2021/03/18 10:44:35;;;;;;;17.42;8.13;;;;;;;9.15;47.29;101141.09;5008828;28;20058;-82
2021/03/18 10:47:22;;;;;;;11.38;7.38;;;;;;;9.40;45.93;101138.59;4995028;28;20060;-82
2021/03/18 10:50:06;;;;;;;13.88;7.75;;;;;;;9.54;45.67;101134.66;5005541;28;20367;-85
2021/03/18 10:52:34;;;;;;;12.27;7.40;;;;;;;9.68;45.10;101135.94;5000322;28;20052;-84
2021/03/18 10:55:00;;;;;;;14.05;7.68;;;;;;;9.77;44.42;101137.44;5002931;28;20443;-84
2021/03/18 10:57:57;;;;;;;12.38;7.20;;;;;;;9.60;44.10;101131.84;5003091;28;20462;-83
2021/03/18 11:00:28;;;;;;;14.07;7.03;;;;;;;9.34;44.73;101124.69;4995430;28;20081;-81
2021/03/18 11:06:30;;;;;;;9.70;6.70;;;;;;;9.09;46.95;101106.94;5007242;28;20054;-83
2021/03/18 11:12:35;;;;;;;10.52;7.20;;;;;;;9.08;47.35;101113.13;5015288;28;20059;-84
2021/03/18 11:15:03;;;;;;;11.90;6.72;;;;;;;9.08;47.12;101106.97;5007518;28;20065;-83
2021/03/18 11:17:30;;;;;;;11.40;7.07;;;;;;;9.08;47.43;101106.97;5007777;28;20422;-83
2021/03/18 11:20:08;;;;;;;11.05;7.15;;;;;;;9.31;46.98;101104.50;5010210;28;20065;-85
2021/03/18 11:22:35;;;;;;;12.07;7.05;;;;;;;9.52;46.36;101096.81;5003394;28;20111;-84
2021/03/18 11:25:04;;;;;;;10.07;7.25;;;;;;;9.58;46.06;101092.22;5008380;28;20047;-86
2021/03/18 11:27:32;;;;;;;12.48;7.38;;;;;;;9.67;45.55;101094.56;5000085;28;20118;-83
2021/03/18 11:29:59;;;;;;;12.00;7.65;;;;;;;9.67;45.73;101096.34;4999666;28;20069;-83
2021/03/18 11:32:30;;;;;;;8.68;7.03;;;;;;;9.59;45.38;101087.78;5006353;28;20081;-79
2021/03/18 11:34:59;;;;;;;10.57;7.35;;;;;;;9.56;46.86;101087.88;5006193;28;20054;-83
2021/03/18 11:37:26;;;;;;;10.63;6.35;;;;;;;9.83;45.77;101079.91;4999239;28;20058;-82
2021/03/18 11:39:54;;;;;;;11.20;6.88;;;;;;;9.90;46.34;101082.38;4996765;28;20054;-85
2021/03/18 11:42:21;;;;;;;10.20;7.10;;;;;;;9.84;46.13;101072.84;5000028;28;20221;-84
2021/03/18 11:44:48;;;;;;;12.25;8.00;;;;;;;9.79;46.42;101069.47;4997551;28;20145;-84
2021/03/18 11:47:15;;;;;;;10.43;6.90;;;;;;;9.67;46.14;101083.97;4995973;28;20112;-85
2021/03/18 11:49:43;;;;;;;9.07;6.68;;;;;;;9.45;46.32;101075.84;4998037;28;20058;-84
2021/03/18 11:52:10;;;;;;;10.63;7.70;;;;;;;9.29;47.07;101079.88;5004089;28;20050;-84
2021/03/18 11:54:38;;;;;;;11.05;7.43;;;;;;;9.23;47.75;101073.94;5017379;28;20819;-85
2021/03/18 11:57:05;;;;;;;10.60;7.65;;;;;;;9.06;47.85;101066.53;5005193;28;20127;-83
2021/03/18 11:59:33;;;;;;;10.63;7.10;;;;;;;8.87;48.03;101074.13;5006193;28;20501;-85
2021/03/18 12:01:59;;;;;;;10.23;7.57;;;;;;;8.71;48.16;101071.06;5001859;28;20133;-83
2021/03/18 12:04:26;;;;;;;12.77;8.02;;;;;;;8.30;50.67;101066.03;5004842;28;20457;-83
2021/03/18 12:06:53;;;;;;;13.98;9.18;;;;;;;7.93;52.70;101064.34;5006296;28;20050;-83
2021/03/18 12:09:19;;;;;;;10.68;7.93;;;;;;;7.60;55.17;101059.91;5006783;28;20056;-82
2021/03/18 12:11:46;;;;;;;16.67;11.68;;;;;;;7.43;56.20;101064.72;5003041;28;20055;-80
2021/03/18 12:14:13;;;;;;;12.57;8.95;;;;;;;7.33;56.67;101048.25;4999187;28;20133;-83
2021/03/18 12:16:39;;;;;;;12.43;8.18;;;;;;;7.37;57.81;101048.16;4988394;28;20053;-84
2021/03/18 12:19:06;;;;;;;13.02;8.15;;;;;;;7.53;57.50;101046.03;4992081;28;20109;-81
2021/03/18 12:21:33;;;;;;;13.52;8.27;;;;;;;7.75;54.69;101038.44;5002763;28;20082;-85
2021/03/18 12:24:00;;;;;;;10.23;7.78;;;;;;;7.81;54.69;101035.66;4997421;28;20058;-83
2021/03/18 12:26:28;;;;;;;12.25;8.20;;;;;;;7.98;54.56;101033.47;4997862;28;20054;-84
2021/03/18 12:28:56;;;;;;;13.23;8.13;;;;;;;8.17;53.43;101023.28;4994332;28;20054;-83
2021/03/18 12:31:22;;;;;;;14.10;8.23;;;;;;;8.40;53.19;101026.19;4985843;28;20054;-82
2021/03/18 12:33:48;;;;;;;15.88;10.07;;;;;;;8.74;53.16;101017.28;4998870;28;20373;-84
2021/03/18 12:36:15;;;;;;;12.70;8.50;;;;;;;9.01;52.77;101021.75;4998386;28;20057;-84
2021/03/18 12:38:42;;;;;;;11.15;8.27;;;;;;;9.07;52.12;101003.06;4991604;28;20697;-85
2021/03/18 12:41:24;;;;;;;11.38;8.18;;;;;;;9.08;51.99;101009.22;4997273;28;20162;-83
2021/03/18 12:43:50;;;;;;;11.10;7.72;;;;;;;8.89;51.68;101002.75;4999796;28;20587;-85
2021/03/18 12:46:17;;;;;;;11.55;8.32;;;;;;;8.93;51.62;101001.78;5001443;28;20137;-86
2021/03/18 12:48:47;;;;;;;10.52;7.75;;;;;;;8.89;51.14;101001.00;5004579;28;20058;-84
2021/03/18 12:51:14;;;;;;;13.07;9.25;;;;;;;9.03;51.02;100997.91;5006079;28;20070;-82
2021/03/18 12:53:40;;;;;;;12.45;8.43;;;;;;;9.30;49.97;100985.59;5013043;28;20066;-84
2021/03/18 12:56:07;;;;;;;14.82;8.23;;;;;;;9.43;49.24;100987.81;5001925;28;20476;-82
2021/03/18 12:58:33;;;;;;;12.18;7.88;;;;;;;9.09;48.98;100976.59;5016771;28;20533;-82
2021/03/18 13:01:00;;;;;;;12.05;7.70;;;;;;;8.95;49.19;100971.75;4997701;28;20109;-84
2021/03/18 13:03:30;;;;;;;9.70;6.75;;;;;;;9.04;48.78;100973.22;4997714;28;20062;-81
2021/03/18 13:05:57;;;;;;;9.85;7.30;;;;;;;9.13;47.47;100965.00;5002077;28;20081;-85
2021/03/18 13:08:24;;;;;;;8.77;6.82;;;;;;;9.12;48.20;100960.66;5027763;28;20438;-81
2021/03/18 13:10:52;;;;;;;10.30;6.65;;;;;;;9.41;47.25;100952.66;5021635;28;20117;-82
2021/03/18 13:13:18;;;;;;;9.10;6.60;;;;;;;9.27;47.04;100957.53;5030316;28;20073;-84
2021/03/18 13:15:46;;;;;;;12.48;7.03;;;;;;;8.63;50.98;100951.63;5013130;28;20073;-80
2021/03/18 13:18:37;;;;;;;8.75;6.85;;;;;;;8.23;52.92;100958.91;5006484;28;20049;-81
2021/03/18 13:24:47;;;;;;;10.75;6.95;;;;;;;7.62;55.12;100952.66;5004856;28;20061;-83
2021/03/18 13:27:34;;;;;;;11.27;7.38;;;;;;;7.40;55.72;100952.34;5008572;28;20540;-81
2021/03/18 13:30:01;;;;;;;13.85;7.65;;;;;;;7.39;56.40;100962.03;5012198;28;20078;-80
2021/03/18 13:32:28;;;;;;;11.20;7.47;;;;;;;7.27;57.32;100938.63;5010945;28;20055;-83
2021/03/18 13:34:55;;;;;;;12.70;8.80;;;;;;;7.28;61.12;100956.16;5012762;28;20204;-82
2021/03/18 13:37:37;;;;;;;13.98;8.50;;;;;;;7.21;62.02;100965.13;5012623;28;20130;-82
2021/03/18 13:43:27;;;;;;;14.65;9.10;;;;;;;6.82;66.00;100953.75;5010347;28;20486;-79
2021/03/18 13:45:54;;;;;;;12.15;9.02;;;;;;;6.63;66.47;100949.78;5008177;28;20062;-80
2021/03/18 13:48:38;;;;;;;12.68;9.00;;;;;;;6.37;64.80;100938.97;5010720;28;20085;-80
2021/03/18 13:51:06;;;;;;;13.98;9.07;;;;;;;6.27;64.79;100933.91;5014566;28;20058;-81